createdAt,value
2018-09-28T00:01:45.617Z,7.07
2018-09-28T00:04:14.121Z,4.80
2018-09-28T00:06:42.573Z,4.03
2018-09-28T00:09:11.501Z,4.20
2018-09-28T00:11:40.134Z,4.87
2018-09-28T00:14:08.940Z,4.33
2018-09-28T00:16:37.386Z,4.43
2018-09-28T00:19:05.863Z,4.53
2018-09-28T00:21:34.309Z,4.40
2018-09-28T00:24:02.733Z,4.47
2018-09-28T00:26:31.349Z,7.90
2018-09-28T00:29:00.127Z,4.23
2018-09-28T00:31:28.769Z,6.33
2018-09-28T00:33:57.328Z,4.37
2018-09-28T00:36:25.957Z,4.97
2018-09-28T00:38:54.491Z,4.57
2018-09-28T00:41:22.954Z,10.43
2018-09-28T00:43:51.391Z,3.63
2018-09-28T00:46:19.813Z,4.20
2018-09-28T00:48:48.312Z,5.33
2018-09-28T00:51:16.818Z,4.10
2018-09-28T00:53:45.321Z,4.43
2018-09-28T00:56:13.753Z,5.13
2018-09-28T00:58:42.216Z,4.40
2018-09-28T01:01:10.644Z,4.37
2018-09-28T01:03:39.131Z,5.23
2018-09-28T01:06:07.653Z,9.30
2018-09-28T01:08:36.249Z,4.40
2018-09-28T01:11:04.733Z,5.80
2018-09-28T01:13:33.264Z,6.47
2018-09-28T01:16:01.732Z,6.43
2018-09-28T01:18:30.344Z,4.40
2018-09-28T01:20:58.950Z,5.37
2018-09-28T01:23:27.535Z,5.00
2018-09-28T01:25:56.162Z,4.97
2018-09-28T01:28:24.725Z,3.98
2018-09-28T01:30:53.269Z,4.90
2018-09-28T01:33:21.729Z,4.78
2018-09-28T01:35:50.186Z,4.07
2018-09-28T01:38:18.721Z,4.90
2018-09-28T01:40:47.116Z,6.00
2018-09-28T01:43:15.541Z,4.50
2018-09-28T01:45:43.979Z,4.57
2018-09-28T01:48:12.409Z,5.33
2018-09-28T01:50:40.797Z,4.80
2018-09-28T01:53:09.273Z,4.90
2018-09-28T01:55:37.685Z,6.67
2018-09-28T01:58:06.495Z,5.07
2018-09-28T02:00:34.964Z,6.55
2018-09-28T02:03:03.437Z,4.35
2018-09-28T02:05:31.971Z,5.65
2018-09-28T02:08:00.559Z,4.17
2018-09-28T02:10:29.078Z,4.17
2018-09-28T02:12:57.666Z,4.22
2018-09-28T02:15:26.335Z,5.30
2018-09-28T02:17:54.874Z,4.42
2018-09-28T02:20:24.027Z,6.92
2018-09-28T02:22:52.575Z,4.22
2018-09-28T02:25:20.952Z,4.28
2018-09-28T02:27:49.432Z,4.80
2018-09-28T02:30:17.898Z,9.83
2018-09-28T02:32:46.398Z,5.30
2018-09-28T02:35:14.831Z,5.35
2018-09-28T02:37:43.315Z,3.70
2018-09-28T02:40:11.759Z,4.37
2018-09-28T02:42:40.233Z,7.83
2018-09-28T02:45:08.703Z,4.17
2018-09-28T02:47:37.196Z,4.37
2018-09-28T02:50:05.803Z,4.33
2018-09-28T02:52:34.273Z,4.13
2018-09-28T02:55:02.773Z,8.80
2018-09-28T02:57:31.569Z,3.85
2018-09-28T03:00:00.155Z,3.80
2018-09-28T03:02:28.644Z,4.53
2018-09-28T03:04:57.326Z,4.10
2018-09-28T03:07:26.131Z,6.67
2018-09-28T03:09:54.643Z,4.20
2018-09-28T03:12:24.171Z,5.50
2018-09-28T03:14:52.636Z,4.22
2018-09-28T03:17:21.061Z,3.85
2018-09-28T03:19:49.487Z,3.80
2018-09-28T03:22:17.895Z,3.97
2018-09-28T03:24:46.332Z,8.07
2018-09-28T03:27:14.685Z,5.37
2018-09-28T03:29:43.127Z,5.25
2018-09-28T03:32:11.554Z,3.47
2018-09-28T03:34:40.005Z,4.70
2018-09-28T03:37:08.450Z,4.12
2018-09-28T03:39:36.875Z,4.55
2018-09-28T03:42:05.439Z,4.15
2018-09-28T03:44:33.851Z,4.47
2018-09-28T03:47:02.595Z,6.33
2018-09-28T03:49:31.101Z,4.05
2018-09-28T03:51:59.722Z,4.58
2018-09-28T03:54:28.548Z,5.45
2018-09-28T03:56:57.144Z,4.60
2018-09-28T03:59:25.781Z,6.33
2018-09-28T04:01:54.251Z,4.83
2018-09-28T04:04:22.673Z,5.72
2018-09-28T04:06:51.169Z,7.00
2018-09-28T04:11:58.768Z,5.30
2018-09-28T04:14:27.276Z,8.48
2018-09-28T04:16:55.757Z,5.40
2018-09-28T04:19:24.233Z,5.47
2018-09-28T04:21:59.562Z,5.25
2018-09-28T04:24:28.749Z,5.15
2018-09-28T04:26:57.625Z,4.55
2018-09-28T04:29:26.373Z,5.00
2018-09-28T04:31:55.041Z,5.35
2018-09-28T04:34:23.652Z,5.33
2018-09-28T04:36:52.428Z,7.80
2018-09-28T04:39:20.907Z,5.78
2018-09-28T04:41:49.396Z,6.87
2018-09-28T04:44:17.844Z,5.55
2018-09-28T04:46:46.267Z,5.50
2018-09-28T04:49:14.796Z,5.45
2018-09-28T04:51:43.284Z,6.80
2018-09-28T04:54:11.746Z,5.25
2018-09-28T04:56:40.296Z,5.30
2018-09-28T04:59:08.820Z,9.98
2018-09-28T05:01:37.253Z,7.12
2018-09-28T05:04:05.760Z,5.65
2018-09-28T05:06:34.220Z,5.78
2018-09-28T05:09:02.737Z,5.10
2018-09-28T05:11:31.219Z,7.20
2018-09-28T05:13:59.841Z,8.45
2018-09-28T05:16:28.536Z,5.45
2018-09-28T05:18:57.175Z,6.53
2018-09-28T05:21:25.709Z,5.20
2018-09-28T05:23:54.354Z,6.45
2018-09-28T05:26:22.763Z,6.65
2018-09-28T05:28:51.242Z,8.08
2018-09-28T05:31:19.800Z,6.30
2018-09-28T05:33:48.267Z,7.10
2018-09-28T05:36:16.700Z,7.05
2018-09-28T05:38:45.156Z,6.60
2018-09-28T05:41:13.618Z,7.75
2018-09-28T05:43:42.120Z,8.70
2018-09-28T05:46:10.659Z,10.53
2018-09-28T05:48:39.269Z,8.40
2018-09-28T05:51:07.884Z,9.28
2018-09-28T05:53:36.699Z,10.28
2018-09-28T05:56:05.361Z,11.73
2018-09-28T05:58:39.325Z,15.87
2018-09-28T06:01:13.152Z,24.83
2018-09-28T06:03:47.018Z,26.87
2018-09-28T06:06:15.522Z,25.10
2018-09-28T06:08:43.940Z,26.70
2018-09-28T06:11:14.483Z,25.67
2018-09-28T06:13:43.083Z,30.97
2018-09-28T06:16:11.630Z,31.40
2018-09-28T06:18:44.249Z,32.60
2018-09-28T06:21:12.735Z,31.80
2018-09-28T06:23:41.318Z,28.47
2018-09-28T06:26:09.832Z,29.87
2018-09-28T06:28:38.281Z,24.63
2018-09-28T06:31:06.949Z,25.43
2018-09-28T06:33:35.380Z,23.93
2018-09-28T06:36:03.926Z,27.57
2018-09-28T06:38:32.374Z,29.25
2018-09-28T06:41:00.994Z,35.67
2018-09-28T06:43:29.561Z,30.30
2018-09-28T06:45:58.140Z,26.37
2018-09-28T06:48:33.325Z,24.10
2018-09-28T06:51:01.867Z,29.60
2018-09-28T06:53:30.466Z,31.27
2018-09-28T06:55:58.992Z,27.67
2018-09-28T06:58:27.648Z,42.37
2018-09-28T07:00:56.307Z,37.10
2018-09-28T07:03:24.832Z,29.87
2018-09-28T07:05:53.449Z,30.90
2018-09-28T07:08:21.976Z,29.10
2018-09-28T07:10:50.399Z,30.80
2018-09-28T07:13:18.949Z,27.53
2018-09-28T07:15:47.436Z,33.93
2018-09-28T07:18:15.922Z,57.07
2018-09-28T07:20:44.382Z,28.20
2018-09-28T07:23:12.799Z,30.27
2018-09-28T07:25:41.332Z,33.63
2018-09-28T07:28:10.847Z,30.33
2018-09-28T07:30:41.460Z,29.43
2018-09-28T07:33:10.008Z,25.93
2018-09-28T07:35:38.587Z,28.40
2018-09-28T07:38:07.156Z,34.10
2018-09-28T07:40:35.605Z,24.90
2018-09-28T07:43:05.231Z,28.47
2018-09-28T07:45:33.622Z,32.53
2018-09-28T07:48:02.186Z,27.60
2018-09-28T07:50:30.670Z,27.47
2018-09-28T07:52:59.327Z,33.10
2018-09-28T07:55:28.020Z,24.77
2018-09-28T07:57:56.856Z,31.07
2018-09-28T08:00:25.594Z,33.00
2018-09-28T08:02:54.563Z,30.03
2018-09-28T08:05:23.066Z,32.23
2018-09-28T08:07:51.545Z,31.60
2018-09-28T08:10:20.026Z,26.50
2018-09-28T08:12:48.469Z,26.90
2018-09-28T08:15:16.964Z,28.60
2018-09-28T08:17:45.467Z,27.50
2018-09-28T08:20:13.992Z,26.67
2018-09-28T08:22:42.504Z,31.07
2018-09-28T08:25:11.833Z,25.50
2018-09-28T08:30:18.698Z,28.73
2018-09-28T08:32:47.262Z,31.20
2018-09-28T08:35:15.845Z,33.70
2018-09-28T08:37:44.368Z,30.27
2018-09-28T08:40:12.902Z,25.50
2018-09-28T08:42:41.442Z,28.70
2018-09-28T08:45:09.971Z,23.77
2018-09-28T08:47:38.433Z,27.37
2018-09-28T08:50:07.106Z,28.90
2018-09-28T08:52:35.594Z,21.60
2018-09-28T08:55:04.401Z,20.67
2018-09-28T08:57:32.907Z,23.60
2018-09-28T09:00:01.605Z,23.53
2018-09-28T09:02:30.108Z,19.03
2018-09-28T09:04:58.776Z,20.57
2018-09-28T09:07:27.667Z,23.17
2018-09-28T09:09:56.215Z,21.80
2018-09-28T09:12:24.932Z,18.70
2018-09-28T09:14:53.457Z,26.53
2018-09-28T09:17:22.055Z,16.83
2018-09-28T09:19:51.001Z,17.13
2018-09-28T09:22:19.562Z,14.40
2018-09-28T09:24:48.111Z,12.53
2018-09-28T09:27:16.700Z,14.93
2018-09-28T09:29:45.252Z,16.30
2018-09-28T09:32:13.730Z,15.30
2018-09-28T09:34:42.220Z,13.73
2018-09-28T09:37:10.784Z,14.97
2018-09-28T09:39:39.318Z,14.90
2018-09-28T09:42:07.941Z,15.57
2018-09-28T09:44:36.349Z,13.90
2018-09-28T09:47:04.924Z,15.50
2018-09-28T09:49:33.493Z,18.73
2018-09-28T09:52:02.001Z,16.47
2018-09-28T09:54:30.624Z,14.27
2018-09-28T09:56:59.240Z,14.50
2018-09-28T09:59:27.753Z,14.87
2018-09-28T10:02:01.556Z,16.50
2018-09-28T10:04:30.347Z,16.90
2018-09-28T10:06:59.064Z,11.77
2018-09-28T10:09:27.605Z,16.57
2018-09-28T10:11:56.624Z,22.03
2018-09-28T10:14:25.692Z,10.10
2018-09-28T10:16:54.391Z,11.43
2018-09-28T10:19:23.390Z,12.87
2018-09-28T10:21:52.413Z,10.17
2018-09-28T10:24:20.986Z,11.23
2018-09-28T10:26:49.470Z,9.53
2018-09-28T10:29:18.409Z,7.03
2018-09-28T10:31:46.881Z,9.97
2018-09-28T10:34:15.398Z,11.20
2018-09-28T10:36:43.885Z,6.13
2018-09-28T10:39:12.409Z,7.57
2018-09-28T10:41:40.933Z,7.63
2018-09-28T10:44:09.382Z,6.43
2018-09-28T10:46:37.971Z,7.17
2018-09-28T10:49:06.438Z,8.13
2018-09-28T10:51:35.026Z,9.47
2018-09-28T10:54:03.546Z,9.40
2018-09-28T10:56:32.111Z,9.90
2018-09-28T10:59:00.847Z,9.23
2018-09-28T11:01:30.667Z,9.37
2018-09-28T11:03:59.316Z,7.57
2018-09-28T11:06:29.815Z,9.90
2018-09-28T11:09:00.171Z,5.93
2018-09-28T11:11:29.098Z,7.93
2018-09-28T11:13:57.633Z,9.73
2018-09-28T11:16:26.345Z,9.30
2018-09-28T11:18:54.973Z,12.27
2018-09-28T11:21:23.536Z,11.00
2018-09-28T11:23:51.977Z,7.20
2018-09-28T11:26:20.572Z,7.93
2018-09-28T11:28:48.984Z,9.33
2018-09-28T11:31:17.491Z,9.40
2018-09-28T11:33:45.987Z,10.73
2018-09-28T11:36:14.521Z,8.00
2018-09-28T11:38:43.039Z,6.10
2018-09-28T11:41:11.553Z,7.57
2018-09-28T11:43:40.033Z,9.97
2018-09-28T11:46:08.564Z,8.37
2018-09-28T11:48:37.060Z,8.27
2018-09-28T11:51:06.109Z,5.83
2018-09-28T11:53:34.661Z,6.60
2018-09-28T11:56:03.429Z,5.23
2018-09-28T11:58:31.981Z,5.07
2018-09-28T12:01:00.821Z,5.80
2018-09-28T12:03:29.731Z,6.50
2018-09-28T12:05:58.300Z,5.83
2018-09-28T12:08:27.608Z,5.97
2018-09-28T12:10:56.363Z,5.93
2018-09-28T12:13:25.562Z,6.43
2018-09-28T12:15:54.163Z,13.53
2018-09-28T12:18:22.946Z,5.57
2018-09-28T12:20:51.404Z,5.73
2018-09-28T12:23:19.957Z,6.63
2018-09-28T12:25:48.479Z,6.97
2018-09-28T12:28:17.003Z,6.20
2018-09-28T12:30:45.521Z,5.23
2018-09-28T12:33:14.046Z,6.33
2018-09-28T12:35:42.589Z,6.00
2018-09-28T12:38:11.080Z,5.97
2018-09-28T12:40:39.718Z,5.77
2018-09-28T12:43:08.661Z,5.87
2018-09-28T12:45:37.329Z,8.37
2018-09-28T12:48:06.048Z,6.30
2018-09-28T12:50:34.593Z,5.73
2018-09-28T12:53:03.371Z,4.67
2018-09-28T12:55:32.882Z,6.13
2018-09-28T12:58:01.433Z,5.20
2018-09-28T13:00:30.285Z,5.37
2018-09-28T13:02:58.941Z,5.10
2018-09-28T13:05:27.631Z,5.13
2018-09-28T13:07:57.398Z,9.30
2018-09-28T13:10:25.920Z,5.30
2018-09-28T13:12:55.934Z,5.60
2018-09-28T13:15:24.539Z,4.87
2018-09-28T13:17:53.076Z,14.33
2018-09-28T13:20:21.684Z,5.07
2018-09-28T13:22:50.177Z,7.10
2018-09-28T13:25:18.737Z,6.93
2018-09-28T13:27:47.306Z,10.30
2018-09-28T13:30:15.835Z,6.07
2018-09-28T13:32:44.309Z,7.60
2018-09-28T13:35:12.827Z,7.10
2018-09-28T13:37:41.309Z,11.20
2018-09-28T13:40:09.845Z,9.67
2018-09-28T13:42:38.357Z,7.90
2018-09-28T13:45:06.990Z,6.83
2018-09-28T13:47:35.466Z,9.50
2018-09-28T13:50:04.171Z,17.57
2018-09-28T13:52:32.986Z,13.37
2018-09-28T13:55:01.595Z,12.27
2018-09-28T13:57:30.254Z,7.93
2018-09-28T13:59:58.854Z,11.70
2018-09-28T14:02:27.543Z,10.70
2018-09-28T14:04:56.101Z,7.23
2018-09-28T14:07:24.629Z,11.80
2018-09-28T14:09:53.104Z,10.73
2018-09-28T14:12:21.647Z,10.50
2018-09-28T14:14:50.240Z,10.17
2018-09-28T14:17:18.606Z,9.33
2018-09-28T14:20:11.946Z,16.70
2018-09-28T14:22:40.588Z,8.37
2018-09-28T14:25:09.154Z,10.27
2018-09-28T14:27:37.640Z,13.20
2018-09-28T14:30:06.222Z,11.20
2018-09-28T14:32:34.882Z,10.50
2018-09-28T14:35:03.464Z,10.03
2018-09-28T14:37:47.383Z,9.00
2018-09-28T14:40:17.337Z,9.70
2018-09-28T14:42:45.996Z,9.73
2018-09-28T14:45:15.816Z,10.07
2018-09-28T14:47:44.451Z,16.00
2018-09-28T14:50:12.984Z,13.77
2018-09-28T14:52:41.652Z,10.53
2018-09-28T14:55:10.336Z,12.40
2018-09-28T14:57:53.731Z,14.30
2018-09-28T15:03:41.179Z,12.63
2018-09-28T15:06:09.886Z,12.00
2018-09-28T15:08:47.076Z,10.37
2018-09-28T15:11:16.110Z,11.90
2018-09-28T15:13:44.654Z,11.33
2018-09-28T15:16:13.254Z,9.30
2018-09-28T15:18:41.748Z,8.77
2018-09-28T15:21:10.282Z,6.77
2018-09-28T15:23:38.819Z,6.20
2018-09-28T15:26:07.361Z,7.37
2018-09-28T15:28:35.978Z,6.90
2018-09-28T15:31:04.676Z,5.70
2018-09-28T15:40:31.770Z,4.90
2018-09-28T15:43:00.493Z,4.23
2018-09-28T15:45:29.148Z,5.63
2018-09-28T15:47:58.351Z,5.27
2018-09-28T15:50:27.077Z,3.80
2018-09-28T15:52:56.044Z,6.27
2018-09-28T15:56:20.545Z,7.00
2018-09-28T15:58:49.486Z,7.00
2018-09-28T16:01:18.070Z,8.20
2018-09-28T16:04:06.034Z,4.60
2018-09-28T16:07:12.001Z,4.50
2018-09-28T16:09:40.624Z,3.40
2018-09-28T16:16:55.184Z,5.67
2018-09-28T16:19:27.855Z,5.20
2018-09-28T16:24:50.310Z,3.73
2018-09-28T16:28:37.016Z,3.37
2018-09-28T16:31:05.633Z,4.50
2018-09-28T16:33:34.470Z,4.97
2018-09-28T16:36:07.077Z,3.60
2018-09-28T16:38:38.218Z,3.87
2018-09-28T16:41:08.669Z,5.70
2018-09-28T16:43:40.237Z,5.00
2018-09-28T16:46:09.949Z,10.77
2018-09-28T16:48:38.663Z,6.40
2018-09-28T16:51:16.282Z,2.70
2018-09-28T16:53:46.563Z,8.43
2018-09-28T16:56:15.830Z,9.97
2018-09-28T16:58:44.849Z,7.87
2018-09-28T17:01:21.238Z,2.83
2018-09-28T17:03:51.947Z,5.63
2018-09-28T17:06:21.397Z,5.63
2018-09-28T17:08:50.942Z,4.27
2018-09-28T17:11:20.977Z,5.33
2018-09-28T17:13:56.420Z,6.60
2018-09-28T17:16:28.105Z,5.30
2018-09-28T17:19:04.513Z,6.67
2018-09-28T17:21:37.436Z,10.93
2018-09-28T17:27:05.138Z,5.40
2018-09-28T17:32:27.639Z,8.73
2018-09-28T17:34:58.129Z,9.47
2018-09-28T17:37:29.118Z,8.30
2018-09-28T17:40:01.092Z,18.23
2018-09-28T17:42:31.545Z,9.50
2018-09-28T17:45:03.888Z,2.60
2018-09-28T17:47:34.696Z,9.97
2018-09-28T17:52:45.898Z,4.17
2018-09-28T17:55:15.133Z,6.83
2018-09-28T17:57:45.804Z,13.63
2018-09-28T18:00:15.035Z,4.73
2018-09-28T18:02:44.312Z,7.53
2018-09-28T18:05:13.304Z,11.13
2018-09-28T18:07:42.338Z,8.80
2018-09-28T18:10:11.535Z,3.77
2018-09-28T18:12:46.189Z,6.87
2018-09-28T18:15:20.633Z,7.43
2018-09-28T18:17:53.500Z,5.77
2018-09-28T18:20:24.749Z,10.80
2018-09-28T18:22:54.437Z,9.50
2018-09-28T18:25:24.921Z,5.40
2018-09-28T18:28:40.186Z,5.17
2018-09-28T18:31:10.351Z,9.07
2018-09-28T18:33:39.858Z,5.20
2018-09-28T18:36:08.837Z,6.40
2018-09-28T18:38:38.775Z,5.50
2018-09-28T18:41:08.018Z,4.70
2018-09-28T18:43:36.687Z,6.60
2018-09-28T18:46:05.405Z,4.73
2018-09-28T18:48:34.695Z,6.90
2018-09-28T18:51:04.115Z,8.70
2018-09-28T18:53:34.342Z,6.33
2018-09-28T18:56:04.283Z,10.17
2018-09-28T18:58:32.912Z,6.57
2018-09-28T19:01:01.880Z,6.77
2018-09-28T19:03:30.579Z,5.37
2018-09-28T19:05:59.445Z,6.23
2018-09-28T19:08:28.348Z,5.23
2018-09-28T19:10:56.954Z,6.43
2018-09-28T19:13:26.155Z,5.20
2018-09-28T19:15:54.720Z,9.43
2018-09-28T19:18:23.695Z,3.40
2018-09-28T19:20:52.304Z,6.67
2018-09-28T19:23:21.376Z,5.97
2018-09-28T19:25:49.888Z,7.50
2018-09-28T19:28:18.464Z,4.83
2018-09-28T19:30:47.629Z,6.07
2018-09-28T19:33:16.229Z,6.33
2018-09-28T19:35:44.904Z,8.00
2018-09-28T19:38:13.521Z,9.47
2018-09-28T19:40:42.029Z,3.43
2018-09-28T19:43:10.861Z,9.60
2018-09-28T19:45:39.421Z,7.53
2018-09-28T19:48:08.489Z,6.40
2018-09-28T19:50:37.040Z,8.67
2018-09-28T19:53:05.624Z,5.53
2018-09-28T19:55:36.585Z,8.93
2018-09-28T19:58:05.824Z,9.80
2018-09-28T20:00:34.327Z,3.90
2018-09-28T20:03:03.008Z,7.87
2018-09-28T20:05:31.680Z,7.90
2018-09-28T20:08:00.206Z,6.50
2018-09-28T20:10:28.983Z,4.93
2018-09-28T20:12:58.152Z,6.40
2018-09-28T20:15:26.848Z,5.93
2018-09-28T20:17:56.601Z,7.10
2018-09-28T20:20:25.199Z,9.00
2018-09-28T20:22:53.698Z,12.63
2018-09-28T20:25:22.320Z,4.20
2018-09-28T20:27:50.840Z,5.07
2018-09-28T20:30:19.478Z,2.93
2018-09-28T20:32:48.138Z,6.17
2018-09-28T20:35:16.743Z,13.67
2018-09-28T20:37:45.301Z,6.20
2018-09-28T20:40:13.812Z,5.97
2018-09-28T20:42:42.325Z,7.53
2018-09-28T20:45:10.837Z,8.03
2018-09-28T20:47:39.672Z,4.00
2018-09-28T20:50:08.269Z,5.00
2018-09-28T20:52:36.697Z,7.17
2018-09-28T20:55:05.546Z,5.87
2018-09-28T20:57:34.550Z,5.20
2018-09-28T21:00:03.525Z,6.90
2018-09-28T21:02:32.192Z,6.07
2018-09-28T21:05:01.564Z,12.33
2018-09-28T21:07:30.593Z,4.50
2018-09-28T21:09:59.363Z,4.20
2018-09-28T21:12:28.741Z,7.90
2018-09-28T21:14:58.531Z,7.43
2018-09-28T21:20:09.984Z,6.17
2018-09-28T21:22:40.325Z,6.47
2018-09-28T21:25:08.899Z,6.17
2018-09-28T21:27:37.724Z,8.13
2018-09-28T21:30:07.617Z,6.90
2018-09-28T21:32:36.170Z,4.73
2018-09-28T21:35:04.819Z,5.77
2018-09-28T21:37:33.369Z,8.90
2018-09-28T21:40:02.225Z,6.90
2018-09-28T21:42:32.850Z,3.20
2018-09-28T21:45:03.044Z,7.80
2018-09-28T21:47:31.763Z,5.80
2018-09-28T21:50:00.583Z,4.60
2018-09-28T21:52:29.286Z,7.90
2018-09-28T21:54:58.035Z,5.53
2018-09-28T21:57:26.768Z,5.70
2018-09-28T21:59:56.357Z,6.60
2018-09-28T22:02:25.236Z,3.87
2018-09-28T22:04:54.916Z,6.23
2018-09-28T22:07:23.620Z,4.07
2018-09-28T22:09:52.317Z,2.63
2018-09-28T22:12:21.287Z,4.20
2018-09-28T22:14:49.850Z,5.40
2018-09-28T22:17:18.499Z,7.13
2018-09-28T22:19:47.005Z,6.33
2018-09-28T22:22:15.931Z,3.80
2018-09-28T22:24:44.487Z,4.03
2018-09-28T22:27:13.101Z,4.50
2018-09-28T22:29:41.626Z,3.33
2018-09-28T22:32:10.215Z,10.37
2018-09-28T22:34:38.933Z,6.47
2018-09-28T22:37:07.475Z,7.33
2018-09-28T22:39:36.110Z,4.37
2018-09-28T22:42:04.776Z,4.83
2018-09-28T22:44:33.298Z,4.20
2018-09-28T22:47:01.962Z,4.00
2018-09-28T22:49:30.909Z,4.70
2018-09-28T22:51:59.788Z,6.53
2018-09-28T22:54:28.498Z,4.40
2018-09-28T22:56:57.295Z,2.93
2018-09-28T22:59:25.949Z,2.93
2018-09-28T23:01:54.581Z,5.90
2018-09-28T23:04:23.064Z,3.03
2018-09-28T23:06:51.641Z,2.80
2018-09-28T23:09:20.137Z,4.03
2018-09-28T23:11:48.726Z,8.53
2018-09-28T23:14:17.195Z,5.70
2018-09-28T23:16:45.757Z,5.70
2018-09-28T23:19:14.176Z,6.13
2018-09-28T23:21:42.791Z,2.93
2018-09-28T23:24:11.317Z,3.13
2018-09-28T23:26:39.856Z,6.87
2018-09-28T23:29:08.400Z,3.17
2018-09-28T23:31:37.000Z,3.67
2018-09-28T23:34:05.570Z,6.03
2018-09-28T23:36:34.153Z,5.13
2018-09-28T23:39:02.812Z,6.40
2018-09-28T23:41:31.393Z,3.40
2018-09-28T23:44:00.008Z,4.13
2018-09-28T23:46:28.932Z,3.33
2018-09-28T23:48:57.607Z,6.27
2018-09-28T23:51:26.213Z,5.10
2018-09-28T23:53:54.893Z,7.47
2018-09-28T23:56:23.404Z,3.13
2018-09-28T23:58:51.950Z,2.20
